Buffalo, WY (82834)

4:50 PM MDT on August 20, 2017 (GMT -0600)
Buffalo | | Change Station
Active Advisory: Special Statement

Elev 4708 ft 44.34 °N, 106.70 °W | Updated 12 seconds ago

Clear
Clear
82.8 °F
Feels Like 81 °F
N
0.4
Wind Variable Wind from NNW
Gusts 2.5 mph

Today
High -- | Low -- °F
--% Chance of Precip.
Yesterday
High -- | Low -- °F
Precip. -- in
Pressure 29.81 in
Visibility 10.0 miles
Clouds Clear
Heat Index 81 °F
Dew Point 50 °F
Humidity 32%
Rainfall 0.00 in
Snow Depth Not available.
6:16 AM 8:03 PM
Waning Crescent, 1% visible
METAR KBYG 202153Z AUTO 35013KT 10SM CLR 31/02 A2999 RMK AO2 SLP092 T03060017
Pressure 29.81 in
Visibility 10.0 miles
Clouds Clear
Heat Index 81 °F
Dew Point 50 °F
Humidity 32%
Rainfall 0.00 in
Snow Depth Not available.
6:16 AM 8:03 PM
Waning Crescent, 1% visible
METAR KBYG 202153Z AUTO 35013KT 10SM CLR 31/02 A2999 RMK AO2 SLP092 T03060017

Get Your Daily Forecast Email!

Thanks for signing up!

Be on the lookout for a verification email in your inbox.

You'll start receiving severe weather alerts in your inbox..

×

10-Day Weather Forecast

Almanac

Astronomy

Aug. 20, 2017 Rise Set
Actual Time
Civil Twilight
Nautical Twilight
Astronomical Twilight
Moon
Length of Visible Light
Length of Day
Tomorrow will be .
, % of the Moon is Illuminated

Today's Extremes

State Highs State Lows

Community

WunderPhotos

Category 6

Welcome to Category 6. This is the collective home for Weather Underground's featured writeups by Dr. Jeff Masters (right), Bob Henson (left), Chris Burt, and other regular contributors.

Nearby

Air Quality

  Air Quality AQ Index Pollutant
Not available.

Snow Depth

Station Depth Elevation

Earthquake Activity

City Distance Mag. Time & Date
Minimum magnitude displayed is 2.5.

Coastal Water Temperatures

Place Temperature

Stations

Nearby Weather Stations

Station Location Temp. Windchill Dew Point Humidity Wind Precip. Elev Updated Type
                   

Watches & Warnings

Special Statement
Issued: 7:49 AM MDT Aug. 20, 2017 – National Weather Service

... Elevated fire conditions continue today...

Elevated fire weather conditions can be expected for all of
central and northern Wyoming today as relative humidity drops
into the lower and mid teens across the lower elevations... and the
mid teens to around 25 percent in the mountains. Winds will be
southwest 10 to 15 mph with afternoon gusts to 20 mph at times
across Natrona County... and northwest to northeast 5 to 15 mph
with occasional gusts to 20 mph over northern Johnson County.
Residents, travellers, and campers this weekend are encouraged to
take strong caution if considering any type of burning activities.
Please follow local burning rules. In addition, in addition, do
not drive off the area roadways as dry vegetation could easily
catch on fire.


Team Riverton